sensor_id;sensor_type;location;lat;lon;timestamp;temperature;humidity
30973;DHT22;25423;45.624;13.790;2022-10-31T00:00:52;15.50;99.90
30973;DHT22;25423;45.624;13.790;2022-10-31T00:03:26;15.50;99.90
30973;DHT22;25423;45.624;13.790;2022-10-31T00:05:55;15.50;99.90
30973;DHT22;25423;45.624;13.790;2022-10-31T00:08:21;15.50;99.90
30973;DHT22;25423;45.624;13.790;2022-10-31T00:10:50;15.50;99.90
30973;DHT22;25423;45.624;13.790;2022-10-31T00:13:16;15.40;99.90
30973;DHT22;25423;45.624;13.790;2022-10-31T00:15:47;15.50;99.90
30973;DHT22;25423;45.624;13.790;2022-10-31T00:18:13;15.50;99.90
30973;DHT22;25423;45.624;13.790;2022-10-31T00:20:39;15.50;99.90
30973;DHT22;25423;45.624;13.790;2022-10-31T00:23:05;15.40;99.90
30973;DHT22;25423;45.624;13.790;2022-10-31T00:25:36;15.40;99.90
30973;DHT22;25423;45.624;13.790;2022-10-31T00:28:03;15.30;99.90
30973;DHT22;25423;45.624;13.790;2022-10-31T00:30:29;15.30;99.90
30973;DHT22;25423;45.624;13.790;2022-10-31T00:32:54;15.30;99.90
30973;DHT22;25423;45.624;13.790;2022-10-31T00:35:20;15.30;99.90
30973;DHT22;25423;45.624;13.790;2022-10-31T00:37:46;15.30;99.90
30973;DHT22;25423;45.624;13.790;2022-10-31T00:40:12;15.30;99.90
30973;DHT22;25423;45.624;13.790;2022-10-31T00:42:38;15.30;99.90
30973;DHT22;25423;45.624;13.790;2022-10-31T00:45:04;15.20;99.90
30973;DHT22;25423;45.624;13.790;2022-10-31T00:47:30;15.20;99.90
30973;DHT22;25423;45.624;13.790;2022-10-31T00:49:56;15.30;99.90
30973;DHT22;25423;45.624;13.790;2022-10-31T00:52:24;15.30;99.90
30973;DHT22;25423;45.624;13.790;2022-10-31T00:54:50;15.20;99.90
30973;DHT22;25423;45.624;13.790;2022-10-31T00:57:16;15.10;99.90
30973;DHT22;25423;45.624;13.790;2022-10-31T00:59:48;15.00;99.90
30973;DHT22;25423;45.624;13.790;2022-10-31T01:02:14;15.00;99.90
30973;DHT22;25423;45.624;13.790;2022-10-31T01:04:39;15.10;99.90
30973;DHT22;25423;45.624;13.790;2022-10-31T01:07:05;15.10;99.90
30973;DHT22;25423;45.624;13.790;2022-10-31T01:09:31;15.00;99.90
30973;DHT22;25423;45.624;13.790;2022-10-31T01:12:03;14.90;99.90
30973;DHT22;25423;45.624;13.790;2022-10-31T01:14:28;15.00;99.90
30973;DHT22;25423;45.624;13.790;2022-10-31T01:16:54;14.90;99.90
30973;DHT22;25423;45.624;13.790;2022-10-31T01:19:20;14.90;99.90
30973;DHT22;25423;45.624;13.790;2022-10-31T01:21:45;14.90;99.90
30973;DHT22;25423;45.624;13.790;2022-10-31T01:24:11;14.90;99.90
30973;DHT22;25423;45.624;13.790;2022-10-31T01:26:37;14.80;99.90
30973;DHT22;25423;45.624;13.790;2022-10-31T01:29:04;14.80;99.90
30973;DHT22;25423;45.624;13.790;2022-10-31T01:31:31;14.90;99.90
30973;DHT22;25423;45.624;13.790;2022-10-31T01:33:58;14.90;99.90
30973;DHT22;25423;45.624;13.790;2022-10-31T01:36:25;14.90;99.90
30973;DHT22;25423;45.624;13.790;2022-10-31T01:38:52;14.90;99.90
30973;DHT22;25423;45.624;13.790;2022-10-31T01:41:19;14.80;99.90
30973;DHT22;25423;45.624;13.790;2022-10-31T01:43:58;14.70;99.90
30973;DHT22;25423;45.624;13.790;2022-10-31T01:46:32;14.70;99.90
30973;DHT22;25423;45.624;13.790;2022-10-31T01:48:59;14.80;99.90
30973;DHT22;25423;45.624;13.790;2022-10-31T01:51:26;14.90;99.90
30973;DHT22;25423;45.624;13.790;2022-10-31T01:53:54;14.90;99.90
30973;DHT22;25423;45.624;13.790;2022-10-31T01:56:20;14.90;99.90
30973;DHT22;25423;45.624;13.790;2022-10-31T01:58:47;14.90;99.90
30973;DHT22;25423;45.624;13.790;2022-10-31T02:01:13;14.90;99.90
30973;DHT22;25423;45.624;13.790;2022-10-31T02:03:40;14.90;99.90
30973;DHT22;25423;45.624;13.790;2022-10-31T02:06:06;15.00;99.90
30973;DHT22;25423;45.624;13.790;2022-10-31T02:08:33;14.90;99.90
30973;DHT22;25423;45.624;13.790;2022-10-31T02:11:00;14.90;99.90
30973;DHT22;25423;45.624;13.790;2022-10-31T02:13:27;14.80;99.90
30973;DHT22;25423;45.624;13.790;2022-10-31T02:15:55;14.90;99.90
30973;DHT22;25423;45.624;13.790;2022-10-31T02:18:21;15.00;99.90
30973;DHT22;25423;45.624;13.790;2022-10-31T02:31:39;14.90;99.90
30973;DHT22;25423;45.624;13.790;2022-10-31T02:34:21;14.90;99.90
30973;DHT22;25423;45.624;13.790;2022-10-31T02:39:41;14.80;99.90
30973;DHT22;25423;45.624;13.790;2022-10-31T02:42:14;14.70;99.90
30973;DHT22;25423;45.624;13.790;2022-10-31T02:45:02;14.70;99.90
30973;DHT22;25423;45.624;13.790;2022-10-31T02:47:52;14.70;99.90
30973;DHT22;25423;45.624;13.790;2022-10-31T02:50:25;14.70;99.90
30973;DHT22;25423;45.624;13.790;2022-10-31T02:52:52;14.80;99.90
30973;DHT22;25423;45.624;13.790;2022-10-31T02:57:50;14.80;99.90
30973;DHT22;25423;45.624;13.790;2022-10-31T03:00:17;14.80;99.90
30973;DHT22;25423;45.624;13.790;2022-10-31T03:05:32;14.80;99.90
30973;DHT22;25423;45.624;13.790;2022-10-31T03:08:06;14.70;99.90
30973;DHT22;25423;45.624;13.790;2022-10-31T03:13:08;14.80;99.90
30973;DHT22;25423;45.624;13.790;2022-10-31T03:15:36;14.80;99.90
30973;DHT22;25423;45.624;13.790;2022-10-31T03:20:36;14.70;99.90
30973;DHT22;25423;45.624;13.790;2022-10-31T03:23:03;14.70;99.90
30973;DHT22;25423;45.624;13.790;2022-10-31T03:25:30;14.70;99.90
30973;DHT22;25423;45.624;13.790;2022-10-31T03:27:57;14.70;99.90
30973;DHT22;25423;45.624;13.790;2022-10-31T03:30:24;14.70;99.90
30973;DHT22;25423;45.624;13.790;2022-10-31T03:32:53;14.80;99.90
30973;DHT22;25423;45.624;13.790;2022-10-31T03:35:20;14.90;99.90
30973;DHT22;25423;45.624;13.790;2022-10-31T03:37:48;14.90;99.90
30973;DHT22;25423;45.624;13.790;2022-10-31T03:40:15;14.90;99.90
30973;DHT22;25423;45.624;13.790;2022-10-31T03:42:43;14.90;99.90
30973;DHT22;25423;45.624;13.790;2022-10-31T03:45:14;14.80;99.90
30973;DHT22;25423;45.624;13.790;2022-10-31T03:47:41;14.70;99.90
30973;DHT22;25423;45.624;13.790;2022-10-31T03:50:08;14.70;99.90
30973;DHT22;25423;45.624;13.790;2022-10-31T03:52:36;14.70;99.90
30973;DHT22;25423;45.624;13.790;2022-10-31T03:55:05;14.80;99.90
30973;DHT22;25423;45.624;13.790;2022-10-31T04:00:08;14.80;99.90
30973;DHT22;25423;45.624;13.790;2022-10-31T04:02:35;14.70;99.90
30973;DHT22;25423;45.624;13.790;2022-10-31T04:05:03;14.70;99.90
30973;DHT22;25423;45.624;13.790;2022-10-31T04:07:30;14.60;99.90
30973;DHT22;25423;45.624;13.790;2022-10-31T04:09:58;14.50;99.90
30973;DHT22;25423;45.624;13.790;2022-10-31T04:12:25;14.60;99.90
30973;DHT22;25423;45.624;13.790;2022-10-31T04:14:52;14.60;99.90
30973;DHT22;25423;45.624;13.790;2022-10-31T04:17:18;14.60;99.90
30973;DHT22;25423;45.624;13.790;2022-10-31T04:19:45;14.60;99.90
30973;DHT22;25423;45.624;13.790;2022-10-31T04:22:11;14.70;99.90
30973;DHT22;25423;45.624;13.790;2022-10-31T04:24:37;14.60;99.90
30973;DHT22;25423;45.624;13.790;2022-10-31T04:27:04;14.40;99.90
30973;DHT22;25423;45.624;13.790;2022-10-31T04:29:30;14.30;99.90
30973;DHT22;25423;45.624;13.790;2022-10-31T04:31:56;14.30;99.90
30973;DHT22;25423;45.624;13.790;2022-10-31T04:34:22;14.30;99.90
30973;DHT22;25423;45.624;13.790;2022-10-31T04:36:47;14.30;99.90
30973;DHT22;25423;45.624;13.790;2022-10-31T04:39:13;14.40;99.90
30973;DHT22;25423;45.624;13.790;2022-10-31T04:41:38;14.50;99.90
30973;DHT22;25423;45.624;13.790;2022-10-31T04:44:04;14.50;99.90
30973;DHT22;25423;45.624;13.790;2022-10-31T04:46:30;14.60;99.90
30973;DHT22;25423;45.624;13.790;2022-10-31T04:48:56;14.50;99.90
30973;DHT22;25423;45.624;13.790;2022-10-31T04:51:21;14.60;99.90
30973;DHT22;25423;45.624;13.790;2022-10-31T04:53:47;14.60;99.90
30973;DHT22;25423;45.624;13.790;2022-10-31T04:56:13;14.60;99.90
30973;DHT22;25423;45.624;13.790;2022-10-31T04:58:39;14.70;99.90
30973;DHT22;25423;45.624;13.790;2022-10-31T05:01:04;14.80;99.90
30973;DHT22;25423;45.624;13.790;2022-10-31T05:03:30;14.80;99.90
30973;DHT22;25423;45.624;13.790;2022-10-31T05:05:56;14.80;99.90
30973;DHT22;25423;45.624;13.790;2022-10-31T05:08:21;14.70;99.90
30973;DHT22;25423;45.624;13.790;2022-10-31T05:10:47;14.60;99.90
30973;DHT22;25423;45.624;13.790;2022-10-31T05:13:13;14.60;99.90
30973;DHT22;25423;45.624;13.790;2022-10-31T05:15:40;14.60;99.90
30973;DHT22;25423;45.624;13.790;2022-10-31T05:18:05;14.50;99.90
30973;DHT22;25423;45.624;13.790;2022-10-31T05:20:31;14.40;99.90
30973;DHT22;25423;45.624;13.790;2022-10-31T05:22:57;14.40;99.90
30973;DHT22;25423;45.624;13.790;2022-10-31T05:25:23;14.30;99.90
30973;DHT22;25423;45.624;13.790;2022-10-31T05:27:50;14.50;99.90
30973;DHT22;25423;45.624;13.790;2022-10-31T05:30:18;14.50;99.90
30973;DHT22;25423;45.624;13.790;2022-10-31T05:32:44;14.60;99.90
30973;DHT22;25423;45.624;13.790;2022-10-31T05:35:15;14.70;99.90
30973;DHT22;25423;45.624;13.790;2022-10-31T05:37:44;14.70;99.90
30973;DHT22;25423;45.624;13.790;2022-10-31T05:40:11;14.50;99.90
30973;DHT22;25423;45.624;13.790;2022-10-31T05:42:40;14.50;99.90
30973;DHT22;25423;45.624;13.790;2022-10-31T05:45:06;14.40;99.90
30973;DHT22;25423;45.624;13.790;2022-10-31T05:47:32;14.40;99.90
30973;DHT22;25423;45.624;13.790;2022-10-31T05:49:58;14.40;99.90
30973;DHT22;25423;45.624;13.790;2022-10-31T05:52:23;14.30;99.90
30973;DHT22;25423;45.624;13.790;2022-10-31T05:54:49;14.30;99.90
30973;DHT22;25423;45.624;13.790;2022-10-31T05:57:15;14.30;99.90
30973;DHT22;25423;45.624;13.790;2022-10-31T05:59:41;14.30;99.90
30973;DHT22;25423;45.624;13.790;2022-10-31T06:02:06;14.30;99.90
30973;DHT22;25423;45.624;13.790;2022-10-31T06:04:32;14.30;99.90
30973;DHT22;25423;45.624;13.790;2022-10-31T06:06:58;14.20;99.90
30973;DHT22;25423;45.624;13.790;2022-10-31T06:09:23;14.30;99.90
30973;DHT22;25423;45.624;13.790;2022-10-31T06:11:49;14.30;99.90
30973;DHT22;25423;45.624;13.790;2022-10-31T06:14:15;14.30;99.90
30973;DHT22;25423;45.624;13.790;2022-10-31T06:16:41;14.40;99.90
30973;DHT22;25423;45.624;13.790;2022-10-31T06:19:06;14.50;99.90
30973;DHT22;25423;45.624;13.790;2022-10-31T06:21:32;14.40;99.90
30973;DHT22;25423;45.624;13.790;2022-10-31T06:23:58;14.50;99.90
30973;DHT22;25423;45.624;13.790;2022-10-31T06:26:23;14.50;99.90
30973;DHT22;25423;45.624;13.790;2022-10-31T06:28:49;14.50;99.90
30973;DHT22;25423;45.624;13.790;2022-10-31T06:31:15;14.40;99.90
30973;DHT22;25423;45.624;13.790;2022-10-31T06:33:41;14.50;99.90
30973;DHT22;25423;45.624;13.790;2022-10-31T06:36:07;14.50;99.90
30973;DHT22;25423;45.624;13.790;2022-10-31T06:38:33;14.60;99.90
30973;DHT22;25423;45.624;13.790;2022-10-31T06:41:01;14.60;99.90
30973;DHT22;25423;45.624;13.790;2022-10-31T06:43:27;14.70;99.90
30973;DHT22;25423;45.624;13.790;2022-10-31T06:45:53;14.90;99.90
30973;DHT22;25423;45.624;13.790;2022-10-31T06:48:19;14.90;99.90
30973;DHT22;25423;45.624;13.790;2022-10-31T06:50:44;15.00;99.90
30973;DHT22;25423;45.624;13.790;2022-10-31T06:53:10;15.10;99.90
30973;DHT22;25423;45.624;13.790;2022-10-31T06:55:36;15.20;99.90
30973;DHT22;25423;45.624;13.790;2022-10-31T06:58:02;15.30;99.90
30973;DHT22;25423;45.624;13.790;2022-10-31T07:00:28;15.40;99.90
30973;DHT22;25423;45.624;13.790;2022-10-31T07:02:57;15.40;99.90
30973;DHT22;25423;45.624;13.790;2022-10-31T07:05:23;15.50;99.90
30973;DHT22;25423;45.624;13.790;2022-10-31T07:07:53;15.60;99.90
30973;DHT22;25423;45.624;13.790;2022-10-31T07:10:19;15.60;99.90
30973;DHT22;25423;45.624;13.790;2022-10-31T07:12:44;15.60;99.90
30973;DHT22;25423;45.624;13.790;2022-10-31T07:15:10;15.60;99.90
30973;DHT22;25423;45.624;13.790;2022-10-31T07:17:36;15.70;99.90
30973;DHT22;25423;45.624;13.790;2022-10-31T07:20:02;15.70;99.90
30973;DHT22;25423;45.624;13.790;2022-10-31T07:22:32;15.80;99.90
30973;DHT22;25423;45.624;13.790;2022-10-31T07:24:58;15.90;99.90
30973;DHT22;25423;45.624;13.790;2022-10-31T07:27:23;16.00;99.90
30973;DHT22;25423;45.624;13.790;2022-10-31T07:29:49;16.10;99.90
30973;DHT22;25423;45.624;13.790;2022-10-31T07:32:15;16.20;99.90
30973;DHT22;25423;45.624;13.790;2022-10-31T07:34:40;16.40;99.90
30973;DHT22;25423;45.624;13.790;2022-10-31T07:37:06;16.50;99.90
30973;DHT22;25423;45.624;13.790;2022-10-31T07:39:32;16.70;99.90
30973;DHT22;25423;45.624;13.790;2022-10-31T07:41:58;16.80;99.90
30973;DHT22;25423;45.624;13.790;2022-10-31T07:44:23;17.00;99.90
30973;DHT22;25423;45.624;13.790;2022-10-31T07:46:49;17.10;99.90
30973;DHT22;25423;45.624;13.790;2022-10-31T07:49:15;17.20;99.90
30973;DHT22;25423;45.624;13.790;2022-10-31T07:51:40;17.20;99.90
30973;DHT22;25423;45.624;13.790;2022-10-31T07:54:06;17.20;99.90
30973;DHT22;25423;45.624;13.790;2022-10-31T07:56:32;17.20;99.90
30973;DHT22;25423;45.624;13.790;2022-10-31T07:58:58;17.30;99.90
30973;DHT22;25423;45.624;13.790;2022-10-31T08:07:41;17.60;99.90
30973;DHT22;25423;45.624;13.790;2022-10-31T08:10:17;17.70;99.90
30973;DHT22;25423;45.624;13.790;2022-10-31T08:12:43;17.90;99.90
30973;DHT22;25423;45.624;13.790;2022-10-31T08:15:09;18.00;99.90
30973;DHT22;25423;45.624;13.790;2022-10-31T08:17:35;18.00;99.90
30973;DHT22;25423;45.624;13.790;2022-10-31T08:20:01;18.00;99.90
30973;DHT22;25423;45.624;13.790;2022-10-31T08:22:26;18.10;99.90
30973;DHT22;25423;45.624;13.790;2022-10-31T08:24:52;18.10;99.90
30973;DHT22;25423;45.624;13.790;2022-10-31T08:27:18;18.20;99.90
30973;DHT22;25423;45.624;13.790;2022-10-31T08:29:44;18.30;99.90
30973;DHT22;25423;45.624;13.790;2022-10-31T08:32:09;18.40;99.90
30973;DHT22;25423;45.624;13.790;2022-10-31T08:34:35;18.40;99.90
30973;DHT22;25423;45.624;13.790;2022-10-31T08:37:01;18.40;99.90
30973;DHT22;25423;45.624;13.790;2022-10-31T08:39:27;18.50;99.90
30973;DHT22;25423;45.624;13.790;2022-10-31T08:41:52;18.60;99.90
30973;DHT22;25423;45.624;13.790;2022-10-31T08:44:18;18.70;99.90
30973;DHT22;25423;45.624;13.790;2022-10-31T08:46:44;18.70;99.90
30973;DHT22;25423;45.624;13.790;2022-10-31T08:49:09;18.70;99.90
30973;DHT22;25423;45.624;13.790;2022-10-31T08:51:35;18.80;99.90
30973;DHT22;25423;45.624;13.790;2022-10-31T08:54:01;18.90;99.90
30973;DHT22;25423;45.624;13.790;2022-10-31T08:56:26;18.90;99.90
30973;DHT22;25423;45.624;13.790;2022-10-31T08:58:55;18.90;99.90
30973;DHT22;25423;45.624;13.790;2022-10-31T09:01:20;19.00;99.90
30973;DHT22;25423;45.624;13.790;2022-10-31T09:03:46;19.00;99.90
30973;DHT22;25423;45.624;13.790;2022-10-31T09:06:13;19.10;99.90
30973;DHT22;25423;45.624;13.790;2022-10-31T09:08:39;19.20;99.90
30973;DHT22;25423;45.624;13.790;2022-10-31T09:11:04;19.20;99.90
30973;DHT22;25423;45.624;13.790;2022-10-31T09:13:31;19.30;99.90
30973;DHT22;25423;45.624;13.790;2022-10-31T09:15:57;19.30;99.90
30973;DHT22;25423;45.624;13.790;2022-10-31T09:18:24;19.20;99.90
30973;DHT22;25423;45.624;13.790;2022-10-31T09:20:50;19.30;99.90
30973;DHT22;25423;45.624;13.790;2022-10-31T09:23:17;19.30;99.90
30973;DHT22;25423;45.624;13.790;2022-10-31T09:25:43;19.40;99.90
30973;DHT22;25423;45.624;13.790;2022-10-31T09:28:11;19.50;99.90
30973;DHT22;25423;45.624;13.790;2022-10-31T09:30:37;19.60;99.90
30973;DHT22;25423;45.624;13.790;2022-10-31T09:33:03;19.60;99.90
30973;DHT22;25423;45.624;13.790;2022-10-31T09:35:29;19.70;99.90
30973;DHT22;25423;45.624;13.790;2022-10-31T09:37:56;19.70;99.90
30973;DHT22;25423;45.624;13.790;2022-10-31T09:40:23;19.80;99.90
30973;DHT22;25423;45.624;13.790;2022-10-31T09:42:53;19.80;99.90
30973;DHT22;25423;45.624;13.790;2022-10-31T09:45:24;19.80;99.90
30973;DHT22;25423;45.624;13.790;2022-10-31T09:50:48;19.90;99.90
30973;DHT22;25423;45.624;13.790;2022-10-31T09:53:23;19.90;99.90
30973;DHT22;25423;45.624;13.790;2022-10-31T09:55:49;19.90;99.90
30973;DHT22;25423;45.624;13.790;2022-10-31T09:58:20;20.00;99.90
30973;DHT22;25423;45.624;13.790;2022-10-31T10:00:47;20.10;99.90
30973;DHT22;25423;45.624;13.790;2022-10-31T10:08:50;20.20;99.90
30973;DHT22;25423;45.624;13.790;2022-10-31T10:16:49;20.10;99.90
30973;DHT22;25423;45.624;13.790;2022-10-31T10:30:20;20.10;99.90
30973;DHT22;25423;45.624;13.790;2022-10-31T10:33:14;20.10;99.90
30973;DHT22;25423;45.624;13.790;2022-10-31T10:35:49;20.20;99.90
30973;DHT22;25423;45.624;13.790;2022-10-31T10:41:28;20.30;99.90
30973;DHT22;25423;45.624;13.790;2022-10-31T10:44:14;20.40;99.90
30973;DHT22;25423;45.624;13.790;2022-10-31T10:46:51;20.40;99.90
30973;DHT22;25423;45.624;13.790;2022-10-31T10:52:16;20.60;99.90
30973;DHT22;25423;45.624;13.790;2022-10-31T10:54:59;20.70;99.90
30973;DHT22;25423;45.624;13.790;2022-10-31T11:00:31;20.80;99.90
30973;DHT22;25423;45.624;13.790;2022-10-31T11:02:58;20.80;99.90
30973;DHT22;25423;45.624;13.790;2022-10-31T11:05:26;20.80;99.90
30973;DHT22;25423;45.624;13.790;2022-10-31T11:07:53;20.80;99.90
30973;DHT22;25423;45.624;13.790;2022-10-31T11:10:19;20.80;99.90
30973;DHT22;25423;45.624;13.790;2022-10-31T11:12:57;20.80;99.90
30973;DHT22;25423;45.624;13.790;2022-10-31T11:15:26;20.80;99.90
30973;DHT22;25423;45.624;13.790;2022-10-31T11:18:12;20.80;99.90
30973;DHT22;25423;45.624;13.790;2022-10-31T11:20:42;20.80;99.90
30973;DHT22;25423;45.624;13.790;2022-10-31T11:23:19;20.80;99.90
30973;DHT22;25423;45.624;13.790;2022-10-31T11:25:48;20.80;99.90
30973;DHT22;25423;45.624;13.790;2022-10-31T11:28:15;20.80;99.90
30973;DHT22;25423;45.624;13.790;2022-10-31T11:30:48;20.80;99.90
30973;DHT22;25423;45.624;13.790;2022-10-31T11:33:16;20.80;99.90
30973;DHT22;25423;45.624;13.790;2022-10-31T11:35:42;20.80;99.90
30973;DHT22;25423;45.624;13.790;2022-10-31T11:38:12;20.90;99.90
30973;DHT22;25423;45.624;13.790;2022-10-31T11:40:40;20.80;99.90
30973;DHT22;25423;45.624;13.790;2022-10-31T11:43:16;20.80;99.90
30973;DHT22;25423;45.624;13.790;2022-10-31T11:45:43;20.80;99.90
30973;DHT22;25423;45.624;13.790;2022-10-31T11:48:22;20.90;99.90
30973;DHT22;25423;45.624;13.790;2022-10-31T11:50:51;21.00;99.90
30973;DHT22;25423;45.624;13.790;2022-10-31T11:53:27;21.00;99.90
30973;DHT22;25423;45.624;13.790;2022-10-31T11:56:13;21.00;99.90
30973;DHT22;25423;45.624;13.790;2022-10-31T11:58:39;21.00;99.90
30973;DHT22;25423;45.624;13.790;2022-10-31T12:01:05;21.00;99.90
30973;DHT22;25423;45.624;13.790;2022-10-31T12:03:41;21.00;99.90
30973;DHT22;25423;45.624;13.790;2022-10-31T12:09:36;21.10;99.90
30973;DHT22;25423;45.624;13.790;2022-10-31T12:14:48;20.90;99.90
30973;DHT22;25423;45.624;13.790;2022-10-31T12:17:27;20.80;99.90
30973;DHT22;25423;45.624;13.790;2022-10-31T12:27:49;20.80;99.90
30973;DHT22;25423;45.624;13.790;2022-10-31T12:30:20;20.80;99.90
30973;DHT22;25423;45.624;13.790;2022-10-31T12:38:03;20.80;99.90
30973;DHT22;25423;45.624;13.790;2022-10-31T12:43:38;20.90;99.90
30973;DHT22;25423;45.624;13.790;2022-10-31T12:46:11;20.90;99.90
30973;DHT22;25423;45.624;13.790;2022-10-31T12:56:33;21.10;99.90
30973;DHT22;25423;45.624;13.790;2022-10-31T12:59:01;21.20;99.90
30973;DHT22;25423;45.624;13.790;2022-10-31T13:01:32;21.20;99.90
30973;DHT22;25423;45.624;13.790;2022-10-31T13:04:05;21.30;99.90
30973;DHT22;25423;45.624;13.790;2022-10-31T13:06:36;21.30;99.90
30973;DHT22;25423;45.624;13.790;2022-10-31T13:09:07;21.30;99.90
30973;DHT22;25423;45.624;13.790;2022-10-31T13:11:36;21.30;99.90
30973;DHT22;25423;45.624;13.790;2022-10-31T13:14:11;21.20;99.90
30973;DHT22;25423;45.624;13.790;2022-10-31T13:16:39;21.20;99.90
30973;DHT22;25423;45.624;13.790;2022-10-31T13:24:23;21.20;99.90
30973;DHT22;25423;45.624;13.790;2022-10-31T13:26:54;21.10;99.90
30973;DHT22;25423;45.624;13.790;2022-10-31T13:29:22;21.10;99.90
30973;DHT22;25423;45.624;13.790;2022-10-31T13:31:49;21.10;99.90
30973;DHT22;25423;45.624;13.790;2022-10-31T13:34:19;21.10;99.90
30973;DHT22;25423;45.624;13.790;2022-10-31T13:36:57;21.20;99.90
30973;DHT22;25423;45.624;13.790;2022-10-31T13:39:46;21.20;99.90
30973;DHT22;25423;45.624;13.790;2022-10-31T13:42:20;21.30;99.90
30973;DHT22;25423;45.624;13.790;2022-10-31T13:44:48;21.40;99.90
30973;DHT22;25423;45.624;13.790;2022-10-31T13:47:27;21.50;99.90
30973;DHT22;25423;45.624;13.790;2022-10-31T13:50:06;21.50;99.90
30973;DHT22;25423;45.624;13.790;2022-10-31T13:52:32;21.40;99.90
30973;DHT22;25423;45.624;13.790;2022-10-31T13:54:58;21.50;99.90
30973;DHT22;25423;45.624;13.790;2022-10-31T13:59:53;21.50;99.90
30973;DHT22;25423;45.624;13.790;2022-10-31T14:04:53;21.50;99.90
30973;DHT22;25423;45.624;13.790;2022-10-31T14:07:22;21.30;99.90
30973;DHT22;25423;45.624;13.790;2022-10-31T14:09:55;21.30;99.90
30973;DHT22;25423;45.624;13.790;2022-10-31T14:14:52;21.30;99.90
30973;DHT22;25423;45.624;13.790;2022-10-31T14:17:24;21.30;99.90
30973;DHT22;25423;45.624;13.790;2022-10-31T14:22:35;21.30;99.90
30973;DHT22;25423;45.624;13.790;2022-10-31T14:25:02;21.20;99.90
30973;DHT22;25423;45.624;13.790;2022-10-31T14:29:53;21.20;99.90
30973;DHT22;25423;45.624;13.790;2022-10-31T14:32:23;21.10;99.90
30973;DHT22;25423;45.624;13.790;2022-10-31T14:50:21;20.90;99.90
30973;DHT22;25423;45.624;13.790;2022-10-31T14:52:49;20.80;99.90
30973;DHT22;25423;45.624;13.790;2022-10-31T14:55:15;20.80;99.90
30973;DHT22;25423;45.624;13.790;2022-10-31T14:58:00;20.80;99.90
30973;DHT22;25423;45.624;13.790;2022-10-31T15:00:26;20.70;99.90
30973;DHT22;25423;45.624;13.790;2022-10-31T15:03:05;20.60;99.90
30973;DHT22;25423;45.624;13.790;2022-10-31T15:05:31;20.50;99.90
30973;DHT22;25423;45.624;13.790;2022-10-31T15:07:58;20.50;99.90
30973;DHT22;25423;45.624;13.790;2022-10-31T15:10:25;20.40;99.90
30973;DHT22;25423;45.624;13.790;2022-10-31T15:12:51;20.40;99.90
30973;DHT22;25423;45.624;13.790;2022-10-31T15:17:48;20.20;99.90
30973;DHT22;25423;45.624;13.790;2022-10-31T15:20:25;20.20;99.90
30973;DHT22;25423;45.624;13.790;2022-10-31T15:22:51;20.20;99.90
30973;DHT22;25423;45.624;13.790;2022-10-31T15:28:22;20.00;99.90
30973;DHT22;25423;45.624;13.790;2022-10-31T15:30:52;19.90;99.90
30973;DHT22;25423;45.624;13.790;2022-10-31T15:33:22;19.80;99.90
30973;DHT22;25423;45.624;13.790;2022-10-31T15:35:59;19.80;99.90
30973;DHT22;25423;45.624;13.790;2022-10-31T15:38:25;19.70;99.90
30973;DHT22;25423;45.624;13.790;2022-10-31T15:40:52;19.70;99.90
30973;DHT22;25423;45.624;13.790;2022-10-31T15:43:18;19.60;99.90
30973;DHT22;25423;45.624;13.790;2022-10-31T15:45:44;19.60;99.90
30973;DHT22;25423;45.624;13.790;2022-10-31T15:48:15;19.60;99.90
30973;DHT22;25423;45.624;13.790;2022-10-31T15:50:52;19.50;99.90
30973;DHT22;25423;45.624;13.790;2022-10-31T15:54:04;19.40;99.90
30973;DHT22;25423;45.624;13.790;2022-10-31T15:56:08;19.40;99.90
30973;DHT22;25423;45.624;13.790;2022-10-31T15:58:42;19.40;99.90
30973;DHT22;25423;45.624;13.790;2022-10-31T16:03:56;19.20;99.90
30973;DHT22;25423;45.624;13.790;2022-10-31T16:06:23;19.20;99.90
30973;DHT22;25423;45.624;13.790;2022-10-31T16:08:49;19.10;99.90
30973;DHT22;25423;45.624;13.790;2022-10-31T16:11:17;19.00;99.90
30973;DHT22;25423;45.624;13.790;2022-10-31T16:13:57;19.00;99.90
30973;DHT22;25423;45.624;13.790;2022-10-31T16:16:23;18.90;99.90
30973;DHT22;25423;45.624;13.790;2022-10-31T16:18:49;18.90;99.90
30973;DHT22;25423;45.624;13.790;2022-10-31T16:21:15;18.80;99.90
30973;DHT22;25423;45.624;13.790;2022-10-31T16:23:49;18.80;99.90
30973;DHT22;25423;45.624;13.790;2022-10-31T16:26:17;18.70;99.90
30973;DHT22;25423;45.624;13.790;2022-10-31T16:28:50;18.60;99.90
30973;DHT22;25423;45.624;13.790;2022-10-31T16:31:25;18.60;99.90
30973;DHT22;25423;45.624;13.790;2022-10-31T16:34:00;18.60;99.90
30973;DHT22;25423;45.624;13.790;2022-10-31T16:36:32;18.50;99.90
30973;DHT22;25423;45.624;13.790;2022-10-31T16:38:58;18.50;99.90
30973;DHT22;25423;45.624;13.790;2022-10-31T16:41:24;18.40;99.90
30973;DHT22;25423;45.624;13.790;2022-10-31T16:43:50;18.30;99.90
30973;DHT22;25423;45.624;13.790;2022-10-31T16:46:21;18.30;99.90
30973;DHT22;25423;45.624;13.790;2022-10-31T16:48:48;18.30;99.90
30973;DHT22;25423;45.624;13.790;2022-10-31T16:51:13;18.30;99.90
30973;DHT22;25423;45.624;13.790;2022-10-31T16:53:39;18.20;99.90
30973;DHT22;25423;45.624;13.790;2022-10-31T16:56:05;18.20;99.90
30973;DHT22;25423;45.624;13.790;2022-10-31T16:58:33;18.20;99.90
30973;DHT22;25423;45.624;13.790;2022-10-31T17:01:00;18.10;99.90
30973;DHT22;25423;45.624;13.790;2022-10-31T17:03:26;18.10;99.90
30973;DHT22;25423;45.624;13.790;2022-10-31T17:05:52;18.20;99.90
30973;DHT22;25423;45.624;13.790;2022-10-31T17:08:20;18.10;99.90
30973;DHT22;25423;45.624;13.790;2022-10-31T17:10:46;18.10;99.90
30973;DHT22;25423;45.624;13.790;2022-10-31T17:13:13;18.10;99.90
30973;DHT22;25423;45.624;13.790;2022-10-31T17:15:41;18.20;99.90
30973;DHT22;25423;45.624;13.790;2022-10-31T17:18:10;18.20;99.90
30973;DHT22;25423;45.624;13.790;2022-10-31T17:20:37;18.10;99.90
30973;DHT22;25423;45.624;13.790;2022-10-31T17:23:02;18.10;99.90
30973;DHT22;25423;45.624;13.790;2022-10-31T17:25:29;18.00;99.90
30973;DHT22;25423;45.624;13.790;2022-10-31T17:27:56;18.00;99.90
30973;DHT22;25423;45.624;13.790;2022-10-31T17:30:22;17.90;99.90
30973;DHT22;25423;45.624;13.790;2022-10-31T17:32:48;17.90;99.90
30973;DHT22;25423;45.624;13.790;2022-10-31T17:35:14;18.00;99.90
30973;DHT22;25423;45.624;13.790;2022-10-31T17:37:40;17.90;99.90
30973;DHT22;25423;45.624;13.790;2022-10-31T17:40:13;17.80;99.90